Decoded Metar for UUOO (VORONEZH in RUSSIA) (IATA:VOZ) | Meteo·Mobile Aviation Weather
aviador You're here:

UUOO Decoded Metar

VORONEZH in RUSSIA
Report Time2018-12-17 10:00:00
UTC Time2018-12-17 10:37:56
Flight Rules ifr IFR
Wind080° at 4 kt
W.Decomp.*RWY 12: 2.7 kt HW 2.9 kt LCW
W.Rank080° ranks 18
Current wind is below 080° avg. (6.8)
Visibility6000 m
Phenomena:Light Snow
Clouds:Overcast 005 Hf
Expected CloudBase > 400 ft AGL from Temp-Dew spread
Ceiling500 ft
Temp-10°C (ISA -24)
Dew Point-11°C (92% RH)
AAT-14.6°C
QNH1034 hPa
Density Alt-3,159 ft
Elevation515 ft
Report Wrong Elevation
Raw Report
UUOO 171000Z 08002MPS 6000 -SN OVC005 M10/M11 Q1034 R30/490540
NOSIG RMK QFE762=

Extra information for UUOO:More info

Metar Taf Metar & Taf Last 4 Metars F.Rules Stats Wind Profile Meteogram Temp Stats Airport Information Weather charts Add Link Nearby VenuesMetar ALERT Operation Metar Decoded Social comments